Time;durP1;ratioP1;P1;durP2;ratioP2;P2;SDS_P1;SDS_P2;PMS_P1;PMS_P2;Temp;Humidity;BMP_temperature;BMP_pressure;BME280_temperature;BME280_humidity;BME280_pressure;Samples;Min_cycle;Max_cycle;Signal;HPM_P1;HPM_P2
2022/07/24 00:01:38;;;;;;;;;23.67;21.00;;;;;21.88;100.00;101588.22;5019858;28;45596;-73
2022/07/24 00:04:04;;;;;;;;;15.67;14.67;;;;;21.84;100.00;101585.06;5007593;28;45427;-72
2022/07/24 00:06:30;;;;;;;;;18.67;17.33;;;;;21.83;100.00;101591.78;5029268;28;45423;-72
2022/07/24 00:08:55;;;;;;;;;22.33;17.33;;;;;21.81;100.00;101596.78;5018009;28;45740;-72
2022/07/24 00:11:21;;;;;;;;;23.67;22.00;;;;;21.82;100.00;101598.47;5017164;28;45733;-73
2022/07/24 00:13:46;;;;;;;;;19.67;16.33;;;;;21.80;100.00;101595.94;5017704;28;45379;-73
2022/07/24 00:16:12;;;;;;;;;13.67;13.67;;;;;21.79;100.00;101593.41;5021541;28;45658;-73
2022/07/24 00:18:37;;;;;;;;;15.00;14.33;;;;;21.56;100.00;101559.13;5036606;28;45874;-73
2022/07/24 00:21:03;;;;;;;;;14.67;14.33;;;;;21.75;100.00;101592.25;5040062;28;46317;-74
2022/07/24 00:23:29;;;;;;;;;15.33;15.33;;;;;21.72;100.00;101592.78;5032144;28;45360;-74
2022/07/24 00:25:54;;;;;;;;;13.33;10.33;;;;;21.67;100.00;101583.25;5011375;28;45458;-73
2022/07/24 00:28:20;;;;;;;;;17.33;16.00;;;;;21.72;100.00;101587.19;5049971;28;45435;-73
2022/07/24 00:30:46;;;;;;;;;16.67;15.67;;;;;21.69;100.00;101583.84;5029344;28;45990;-72
2022/07/24 00:33:12;;;;;;;;;18.00;13.00;;;;;21.63;100.00;101564.50;5029633;28;45414;-74
2022/07/24 00:35:38;;;;;;;;;14.33;14.33;;;;;21.63;100.00;101562.56;5035463;28;45872;-73
2022/07/24 00:38:03;;;;;;;;;15.00;13.67;;;;;21.63;100.00;101558.91;5022942;28;45707;-73
2022/07/24 00:40:29;;;;;;;;;16.00;14.00;;;;;21.60;100.00;101560.31;5034814;28;45463;-72
2022/07/24 00:42:56;;;;;;;;;14.33;12.33;;;;;21.58;100.00;101556.06;5005817;28;45772;-73
2022/07/24 00:45:22;;;;;;;;;14.00;12.67;;;;;21.51;100.00;101548.75;5020255;28;45527;-74
2022/07/24 00:47:47;;;;;;;;;13.33;10.33;;;;;21.50;100.00;101554.59;5020202;28;45409;-73
2022/07/24 00:50:13;;;;;;;;;15.33;15.00;;;;;21.48;100.00;101548.41;5026342;28;46160;-72
2022/07/24 00:52:38;;;;;;;;;10.33;9.33;;;;;21.43;100.00;101548.34;5031346;28;45647;-73
2022/07/24 00:55:05;;;;;;;;;13.67;12.33;;;;;21.38;100.00;101548.28;5017358;28;45846;-71
2022/07/24 00:57:30;;;;;;;;;18.33;14.33;;;;;21.31;100.00;101540.97;5022725;28;45486;-74
2022/07/24 00:59:57;;;;;;;;;10.33;9.33;;;;;21.29;100.00;101540.38;5018045;28;47799;-73
2022/07/24 01:02:23;;;;;;;;;16.00;14.33;;;;;21.26;100.00;101534.50;5018966;28;45815;-73
2022/07/24 01:04:50;;;;;;;;;13.33;13.33;;;;;21.13;100.00;101528.19;5018808;28;45365;-74
2022/07/24 01:07:15;;;;;;;;;16.00;15.33;;;;;21.14;100.00;101537.44;5003617;28;45608;-73
2022/07/24 01:09:41;;;;;;;;;13.33;13.33;;;;;21.09;100.00;101541.00;5025784;28;45401;-74
2022/07/24 01:12:07;;;;;;;;;14.00;14.00;;;;;21.05;100.00;101539.84;5022082;28;45656;-73
2022/07/24 01:14:33;;;;;;;;;16.33;13.67;;;;;21.03;100.00;101557.91;5015352;28;45567;-76
2022/07/24 01:16:58;;;;;;;;;15.00;13.67;;;;;21.01;100.00;101548.97;5023353;28;46580;-73
2022/07/24 01:19:24;;;;;;;;;13.33;13.00;;;;;20.96;100.00;101558.97;5040331;28;46190;-75
2022/07/24 01:21:51;;;;;;;;;16.33;15.33;;;;;20.95;100.00;101546.09;5002117;28;45885;-73
2022/07/24 01:24:18;;;;;;;;;15.67;13.67;;;;;20.93;100.00;101553.91;5017181;28;45655;-74
2022/07/24 01:26:44;;;;;;;;;15.00;13.00;;;;;20.90;100.00;101554.41;5019381;28;46966;-73
2022/07/24 01:29:10;;;;;;;;;17.67;13.00;;;;;20.88;100.00;101551.03;5041834;28;45646;-73
2022/07/24 01:31:36;;;;;;;;;21.33;17.33;;;;;20.81;100.00;101545.66;5036546;28;45444;-73
2022/07/24 01:34:02;;;;;;;;;20.67;18.00;;;;;20.88;100.00;101561.34;5023740;28;45570;-73
2022/07/24 01:36:28;;;;;;;;;35.67;31.00;;;;;20.85;100.00;101550.72;5046474;28;45330;-73
2022/07/24 01:38:53;;;;;;;;;15.67;15.67;;;;;20.83;100.00;101553.75;5030379;28;46818;-73
2022/07/24 01:41:18;;;;;;;;;19.33;17.67;;;;;20.81;100.00;101553.19;5039339;28;45338;-74
2022/07/24 01:43:44;;;;;;;;;15.33;14.33;;;;;20.84;100.00;101555.47;5038661;28;46255;-73
2022/07/24 01:46:11;;;;;;;;;17.33;16.67;;;;;20.85;100.00;101556.28;5014283;28;45363;-73
2022/07/24 01:48:37;;;;;;;;;16.00;15.67;;;;;20.82;100.00;101557.63;5039284;28;46252;-74
2022/07/24 01:51:03;;;;;;;;;19.67;19.00;;;;;20.83;100.00;101552.94;5027259;28;45385;-72
2022/07/24 01:53:29;;;;;;;;;16.00;15.00;;;;;20.84;100.00;101554.59;5015656;28;45548;-74
2022/07/24 01:55:54;;;;;;;;;16.33;16.00;;;;;20.82;100.00;101543.69;5041100;28;46953;-73
2022/07/24 01:58:20;;;;;;;;;16.00;15.33;;;;;20.84;100.00;101551.81;5030911;28;46425;-73
2022/07/24 02:00:47;;;;;;;;;14.33;14.33;;;;;20.83;100.00;101550.97;5030999;28;45258;-73
2022/07/24 02:03:12;;;;;;;;;15.67;13.67;;;;;20.79;100.00;101553.44;5014937;28;45715;-73
2022/07/24 02:05:38;;;;;;;;;18.67;16.67;;;;;20.80;100.00;101545.91;5021190;28;45408;-72
2022/07/24 02:08:03;;;;;;;;;18.00;14.67;;;;;20.80;100.00;101545.91;5015191;28;45746;-73
2022/07/24 02:10:29;;;;;;;;;14.67;14.67;;;;;20.80;100.00;101543.13;4997426;28;45587;-73
2022/07/24 02:12:56;;;;;;;;;20.67;18.33;;;;;20.81;100.00;101544.81;5015600;28;45740;-73
2022/07/24 02:15:22;;;;;;;;;22.00;17.33;;;;;20.81;100.00;101536.47;5016172;28;45310;-73
2022/07/24 02:17:50;;;;;;;;;16.00;13.67;;;;;20.78;100.00;101532.25;4997198;28;46212;-72
2022/07/24 02:20:16;;;;;;;;;17.67;17.67;;;;;20.77;100.00;101538.06;5000035;28;45580;-72
2022/07/24 02:22:41;;;;;;;;;23.00;18.00;;;;;20.74;100.00;101536.63;5016531;28;45454;-73
2022/07/24 02:25:08;;;;;;;;;18.33;17.00;;;;;20.72;100.00;101527.69;5025731;28;45530;-73
2022/07/24 02:27:33;;;;;;;;;19.67;16.33;;;;;20.70;100.00;101526.25;5017519;28;47131;-73
2022/07/24 02:29:59;;;;;;;;;18.67;17.67;;;;;20.69;100.00;101524.56;5014956;28;45905;-74
2022/07/24 02:32:24;;;;;;;;;15.67;15.67;;;;;20.67;100.00;101532.34;5021859;28;45375;-73
2022/07/24 02:34:50;;;;;;;;;19.00;16.33;;;;;20.64;100.00;101528.97;5041511;28;45844;-73
2022/07/24 02:37:16;;;;;;;;;16.33;16.33;;;;;20.61;100.00;101526.69;5019961;28;47581;-73
2022/07/24 02:39:41;;;;;;;;;18.67;18.67;;;;;20.63;100.00;101515.28;5014981;28;45804;-73
2022/07/24 02:42:06;;;;;;;;;19.67;19.67;;;;;20.58;100.00;101518.84;5013811;28;46311;-73
2022/07/24 02:44:32;;;;;;;;;20.00;16.67;;;;;20.60;100.00;101522.22;4996622;28;46656;-72
2022/07/24 02:46:57;;;;;;;;;17.67;17.33;;;;;20.57;100.00;101511.56;5014689;28;45378;-73
2022/07/24 02:49:23;;;;;;;;;23.33;17.67;;;;;20.59;100.00;101514.09;5014221;28;45566;-73
2022/07/24 02:51:49;;;;;;;;;21.33;20.00;;;;;20.58;100.00;101506.84;5015090;28;45378;-73
2022/07/24 02:54:14;;;;;;;;;14.67;14.67;;;;;20.56;100.00;101509.88;5014139;28;45381;-73
2022/07/24 02:56:40;;;;;;;;;20.00;17.67;;;;;20.55;100.00;101510.97;5041093;28;45369;-72
2022/07/24 02:59:06;;;;;;;;;19.00;18.00;;;;;20.53;100.00;101502.03;5016194;28;45390;-71
2022/07/24 03:01:31;;;;;;;;;22.33;18.33;;;;;20.51;100.00;101495.88;5118576;22;45597;-72
2022/07/24 03:03:57;;;;;;;;;16.00;14.33;;;;;20.51;100.00;101503.38;5002724;28;45352;-73
2022/07/24 03:06:22;;;;;;;;;16.67;16.00;;;;;20.51;100.00;101500.59;4992555;28;47231;-72
2022/07/24 03:08:48;;;;;;;;;21.67;21.33;;;;;20.48;100.00;101501.97;4998847;28;45386;-73
2022/07/24 03:11:14;;;;;;;;;18.33;17.67;;;;;20.48;100.00;101495.53;5003157;28;45753;-72
2022/07/24 03:13:39;;;;;;;;;17.67;17.00;;;;;20.45;100.00;101496.91;4991047;28;47021;-72
2022/07/24 03:16:05;;;;;;;;;19.67;18.67;;;;;20.38;100.00;101490.69;4998497;28;47673;-73
2022/07/24 03:18:31;;;;;;;;;21.33;17.00;;;;;20.43;100.00;101499.09;4984490;28;45487;-72
2022/07/24 03:20:56;;;;;;;;;21.67;16.33;;;;;20.43;100.00;101499.09;4995047;28;45877;-73
2022/07/24 03:23:23;;;;;;;;;19.67;16.67;;;;;20.41;100.00;101504.09;4997670;28;45740;-72
2022/07/24 03:25:48;;;;;;;;;22.67;21.00;;;;;20.39;100.00;101503.50;4997544;28;45457;-73
2022/07/24 03:28:18;;;;;;;;;25.00;21.67;;;;;20.37;100.00;101500.13;4993585;28;45845;-76
2022/07/24 03:30:43;;;;;;;;;24.00;19.00;;;;;20.39;100.00;101509.94;5012934;28;45342;-72
2022/07/24 03:33:09;;;;;;;;;12.67;11.33;;;;;20.36;100.00;101504.88;5008136;28;45454;-71
2022/07/24 03:35:34;;;;;;;;;23.00;18.67;;;;;20.36;100.00;101504.00;5018224;28;45957;-72
2022/07/24 03:37:59;;;;;;;;;18.67;18.67;;;;;20.34;100.00;101506.22;5010038;28;45640;-71
2022/07/24 03:40:25;;;;;;;;;25.33;20.33;;;;;20.31;100.00;101503.94;5020486;28;45654;-69
2022/07/24 03:42:50;;;;;;;;;25.67;23.67;;;;;20.28;100.00;101503.38;5019672;28;45617;-70
2022/07/24 03:45:16;;;;;;;;;30.67;29.33;;;;;20.26;100.00;101499.97;5021987;28;46313;-71
2022/07/24 03:47:41;;;;;;;;;25.67;20.67;;;;;20.18;100.00;101486.50;4997333;28;45786;-70
2022/07/24 03:50:07;;;;;;;;;21.67;20.33;;;;;20.26;100.00;101504.72;5009462;28;45355;-71
2022/07/24 03:52:32;;;;;;;;;22.67;21.67;;;;;20.25;100.00;101503.03;5012824;28;45417;-70
2022/07/24 03:54:58;;;;;;;;;28.67;27.67;;;;;20.23;100.00;101500.50;5007894;28;45543;-71
2022/07/24 03:57:23;;;;;;;;;29.33;27.00;;;;;20.22;100.00;101507.16;5007952;28;45692;-71
2022/07/24 03:59:49;;;;;;;;;29.33;25.67;;;;;20.21;100.00;101497.13;5008690;28;45589;-69
2022/07/24 04:02:15;;;;;;;;;27.67;26.00;;;;;20.20;100.00;101502.94;5002267;28;45645;-70
2022/07/24 04:04:40;;;;;;;;;24.67;23.33;;;;;20.18;100.00;101507.91;5012818;28;45742;-69
2022/07/24 04:07:06;;;;;;;;;31.67;26.33;;;;;20.16;100.00;101510.97;5001180;28;45676;-69
2022/07/24 04:09:31;;;;;;;;;29.00;28.00;;;;;20.16;100.00;101513.75;5004430;28;45314;-70
2022/07/24 04:11:57;;;;;;;;;24.33;23.33;;;;;20.16;100.00;101521.25;4996317;28;45434;-70
2022/07/24 04:14:22;;;;;;;;;23.67;20.00;;;;;20.17;100.00;101518.22;4991840;28;46371;-70
2022/07/24 04:16:48;;;;;;;;;26.67;21.00;;;;;20.17;100.00;101518.22;5011802;28;45794;-70
2022/07/24 04:19:14;;;;;;;;;28.00;25.33;;;;;20.17;100.00;101518.22;5010263;28;45494;-69
2022/07/24 04:21:40;;;;;;;;;24.67;23.67;;;;;20.19;100.00;101520.75;4990913;28;45812;-70
2022/07/24 04:24:05;;;;;;;;;31.00;26.67;;;;;20.19;100.00;101529.09;4986520;28;47649;-69
2022/07/24 04:26:31;;;;;;;;;28.00;26.00;;;;;20.20;100.00;101516.88;5002750;28;45735;-69
2022/07/24 04:28:56;;;;;;;;;22.67;22.33;;;;;20.25;100.00;101519.72;5012282;28;45418;-68
2022/07/24 04:31:22;;;;;;;;;28.33;23.00;;;;;20.36;100.00;101509.56;5013726;28;45753;-68
2022/07/24 04:33:48;;;;;;;;;26.67;23.00;;;;;20.52;100.00;101513.44;5006638;28;45465;-69
2022/07/24 04:36:13;;;;;;;;;26.67;21.67;;;;;20.73;100.00;101507.06;4992954;28;45720;-73
2022/07/24 04:38:38;;;;;;;;;27.33;24.67;;;;;20.96;100.00;101496.78;5002258;28;45453;-73
2022/07/24 04:41:04;;;;;;;;;25.67;25.33;;;;;21.24;100.00;101503.22;5024581;28;45672;-68
2022/07/24 04:43:30;;;;;;;;;26.00;25.00;;;;;21.52;100.00;101488.19;4994297;28;47014;-75
2022/07/24 04:45:55;;;;;;;;;29.00;26.33;;;;;21.76;100.00;101482.25;4995923;28;45758;-69
2022/07/24 04:48:21;;;;;;;;;24.67;17.00;;;;;22.12;100.00;101488.13;4992437;28;45387;-69
2022/07/24 04:50:47;;;;;;;;;22.00;22.00;;;;;22.43;100.00;101486.41;5001835;28;45516;-69
2022/07/24 04:53:12;;;;;;;;;27.33;25.33;;;;;22.76;100.00;101481.53;5002721;28;46115;-69
2022/07/24 04:55:38;;;;;;;;;20.67;20.33;;;;;23.07;100.00;101464.88;4993114;28;45620;-68
2022/07/24 04:58:03;;;;;;;;;28.00;23.67;;;;;23.41;100.00;101465.25;5002634;28;45415;-68
2022/07/24 05:00:29;;;;;;;;;24.33;21.33;;;;;23.78;100.00;101471.69;4992150;28;45774;-69
2022/07/24 05:02:54;;;;;;;;;28.67;21.00;;;;;24.13;100.00;101462.44;5000550;28;46109;-68
2022/07/24 05:05:19;;;;;;;;;20.67;20.00;;;;;24.48;100.00;101455.06;4998006;28;45533;-69
2022/07/24 05:07:45;;;;;;;;;22.67;20.00;;;;;24.85;100.00;101444.53;4995091;28;46119;-72
2022/07/24 05:10:11;;;;;;;;;24.67;23.00;;;;;25.26;100.00;101446.28;4999413;28;45477;-68
2022/07/24 05:12:36;;;;;;;;;20.67;19.00;;;;;25.70;100.00;101445.41;5000892;28;46479;-68
2022/07/24 05:15:03;;;;;;;;;24.00;18.67;;;;;26.13;100.00;101445.59;4991922;28;45727;-69
2022/07/24 05:17:29;;;;;;;;;22.33;16.67;;;;;26.57;100.00;101449.28;4999972;28;45857;-69
2022/07/24 05:19:54;;;;;;;;;23.67;20.33;;;;;27.01;100.00;101434.13;4988260;28;45559;-70
2022/07/24 05:22:19;;;;;;;;;17.67;17.00;;;;;27.51;100.00;101444.91;5002385;28;45321;-71
2022/07/24 05:24:45;;;;;;;;;18.67;16.00;;;;;28.02;100.00;101440.41;4997041;28;45809;-71
2022/07/24 05:27:10;;;;;;;;;16.33;15.67;;;;;28.49;100.00;101443.16;5006774;28;45446;-64
2022/07/24 05:29:35;;;;;;;;;17.67;17.00;;;;;28.99;100.00;101431.91;4996985;28;45820;-65
2022/07/24 05:32:01;;;;;;;;;19.00;16.67;;;;;29.49;100.00;101430.22;5002063;28;46160;-65
2022/07/24 05:34:26;;;;;;;;;17.67;17.67;;;;;30.01;100.00;101427.72;5000086;28;45540;-66
2022/07/24 05:36:52;;;;;;;;;21.00;17.67;;;;;30.44;100.00;101429.13;4997880;28;45893;-66
2022/07/24 05:39:17;;;;;;;;;15.00;13.67;;;;;30.84;100.00;101431.03;4994919;28;45430;-66
2022/07/24 05:41:42;;;;;;;;;15.67;15.67;;;;;31.25;100.00;101418.44;4977427;28;46041;-65
2022/07/24 05:44:08;;;;;;;;;17.00;17.00;;;;;31.68;100.00;101440.28;4999498;28;45409;-66
2022/07/24 05:46:33;;;;;;;;;15.75;13.75;;;;;32.11;99.57;101428.03;4998714;28;45825;-66
2022/07/24 05:48:59;;;;;;;;;18.75;14.50;;;;;32.56;96.49;101438.81;4998544;28;45778;-66
2022/07/24 05:51:25;;;;;;;;;17.50;14.75;;;;;33.13;88.80;101430.94;4997979;28;45962;-66
2022/07/24 05:53:51;;;;;;;;;14.50;14.50;;;;;33.65;82.63;101440.22;4999191;28;45505;-65
2022/07/24 05:56:16;;;;;;;;;16.00;16.00;;;;;34.16;78.49;101423.75;5003180;28;45810;-66
2022/07/24 05:58:42;;;;;;;;;15.00;12.67;;;;;34.66;72.30;101418.91;5021476;28;45763;-65
2022/07/24 06:01:07;;;;;;;;;15.25;13.75;;;;;35.11;68.33;101428.47;4996107;28;48474;-66
2022/07/24 06:03:33;;;;;;;;;11.00;11.00;;;;;35.60;63.65;101421.75;4986333;28;45402;-67
2022/07/24 06:05:58;;;;;;;;;12.25;11.50;;;;;35.98;57.35;101421.19;4986947;28;45542;-66
2022/07/24 06:08:23;;;;;;;;;11.25;9.75;;;;;36.32;55.39;101418.84;4999389;28;45515;-65
2022/07/24 06:10:49;;;;;;;;;11.50;10.50;;;;;36.67;53.09;101420.91;5006408;28;45852;-65
2022/07/24 06:13:14;;;;;;;;;11.50;10.50;;;;;37.08;49.81;101414.88;4992479;28;45813;-65
2022/07/24 06:15:40;;;;;;;;;12.50;11.00;;;;;37.44;48.64;101419.38;5004863;28;45920;-66
2022/07/24 06:18:05;;;;;;;;;10.50;9.00;;;;;37.85;47.83;101412.38;5004498;28;45419;-66
2022/07/24 06:20:30;;;;;;;;;11.75;10.75;;;;;38.27;43.61;101418.06;5000732;28;46051;-65
2022/07/24 06:22:56;;;;;;;;;11.50;11.25;;;;;38.31;43.21;101415.25;5005785;28;45524;-64
2022/07/24 06:25:21;;;;;;;;;14.50;12.25;;;;;38.54;41.20;101405.81;5000441;28;45508;-66
2022/07/24 06:27:50;;;;;;;;;10.00;10.00;;;;;38.79;42.52;101406.19;4987675;28;47380;-65
2022/07/24 06:30:21;;;;;;;;;9.75;9.75;;;;;39.07;39.54;101404.94;5005414;28;45689;-64
2022/07/24 06:32:47;;;;;;;;;10.75;8.75;;;;;39.47;38.89;101409.94;4996978;28;45775;-65
2022/07/24 06:35:12;;;;;;;;;10.50;10.00;;;;;39.95;37.18;101408.44;5005252;28;45700;-65
2022/07/24 06:37:38;;;;;;;;;13.00;9.75;;;;;40.22;36.32;101406.22;5004574;28;45728;-66
2022/07/24 06:40:05;;;;;;;;;9.50;9.25;;;;;40.57;35.90;101407.72;5008972;28;45983;-66
2022/07/24 06:42:30;;;;;;;;;10.75;10.75;;;;;40.98;34.36;101404.72;5007093;28;45477;-66
2022/07/24 06:44:55;;;;;;;;;9.75;9.75;;;;;41.28;33.36;101404.41;4996033;28;45494;-67
2022/07/24 06:47:21;;;;;;;;;10.25;10.00;;;;;41.50;33.06;101395.03;4998344;28;45615;-68
2022/07/24 06:49:46;;;;;;;;;12.75;11.75;;;;;41.92;32.87;101394.31;5001332;28;45485;-67
2022/07/24 06:52:12;;;;;;;;;11.50;10.00;;;;;42.38;33.32;101391.84;4986555;28;45425;-68
2022/07/24 06:54:37;;;;;;;;;12.00;10.25;;;;;42.77;30.83;101385.19;4993710;28;45524;-69
2022/07/24 06:57:03;;;;;;;;;9.00;9.00;;;;;43.07;30.55;101393.34;5011457;28;45495;-67
2022/07/24 06:59:28;;;;;;;;;9.25;9.25;;;;;43.39;29.77;101398.97;4994724;28;46820;-68
2022/07/24 07:01:54;;;;;;;;;13.33;11.00;;;;;43.54;29.71;101393.94;4996377;28;45660;-71
2022/07/24 07:04:19;;;;;;;;;11.00;10.33;;;;;43.99;29.24;101390.34;4996333;28;45716;-69
2022/07/24 07:06:45;;;;;;;;;10.75;9.00;;;;;44.40;29.49;101392.44;4994258;28;45760;-70
2022/07/24 07:09:11;;;;;;;;;8.67;7.67;;;;;44.81;29.17;101392.88;4992956;28;46833;-67
2022/07/24 07:11:36;;;;;;;;;12.67;11.67;;;;;44.89;27.46;101389.44;4995678;28;45864;-69
2022/07/24 07:14:02;;;;;;;;;11.33;8.67;;;;;45.23;28.64;101390.69;5001475;28;45591;-69
2022/07/24 07:16:28;;;;;;;;;14.67;13.67;;;;;45.54;26.82;101390.69;4994925;28;46042;-70
2022/07/24 07:18:53;;;;;;;;;14.00;12.00;;;;;45.87;27.16;101403.44;4994900;28;45736;-67
2022/07/24 07:21:18;;;;;;;;;11.00;11.00;;;;;46.45;26.83;101388.75;4996011;28;45878;-67
2022/07/24 07:23:44;;;;;;;;;19.33;18.33;;;;;46.93;26.02;101388.66;5000343;28;45480;-67
2022/07/24 07:26:09;;;;;;;;;11.67;11.67;;;;;47.34;25.03;101390.28;4998642;28;45905;-70
2022/07/24 07:28:35;;;;;;;;;12.00;10.33;;;;;47.83;24.48;101387.47;4999251;28;45761;-69
2022/07/24 07:31:00;;;;;;;;;10.67;10.67;;;;;48.49;22.83;101384.50;4989286;28;45910;-67
2022/07/24 07:33:26;;;;;;;;;10.67;10.00;;;;;48.98;22.96;101386.44;4994981;28;45624;-68
2022/07/24 07:35:52;;;;;;;;;11.33;11.33;;;;;49.17;22.19;101381.75;4992029;28;45848;-68
2022/07/24 07:38:18;;;;;;;;;11.33;10.67;;;;;49.41;22.83;101379.31;4994755;28;45842;-66
2022/07/24 07:40:44;;;;;;;;;13.00;12.00;;;;;49.35;21.68;101378.25;5002521;28;45667;-68
2022/07/24 07:43:09;;;;;;;;;14.33;14.33;;;;;49.35;22.44;101377.41;5002273;28;45738;-69
2022/07/24 07:45:35;;;;;;;;;12.67;11.67;;;;;49.58;21.47;101382.13;5002587;28;45663;-67
2022/07/24 07:48:00;;;;;;;;;11.00;10.67;;;;;49.71;21.30;101377.09;5005472;28;45711;-68
2022/07/24 07:50:26;;;;;;;;;13.33;12.33;;;;;49.92;20.64;101372.66;5001156;28;45640;-69
2022/07/24 07:52:52;;;;;;;;;13.00;13.00;;;;;50.16;21.36;101378.88;5007633;28;45808;-70
2022/07/24 07:55:17;;;;;;;;;13.33;11.67;;;;;50.49;20.34;101378.56;4989734;28;47319;-68
2022/07/24 07:57:43;;;;;;;;;12.00;11.67;;;;;50.40;20.70;101374.75;4984244;28;48269;-66
2022/07/24 08:00:10;;;;;;;;;10.00;10.00;;;;;50.62;19.96;101369.78;4999123;28;45433;-68
2022/07/24 08:02:36;;;;;;;;;12.67;11.67;;;;;50.78;20.25;101370.84;5004789;28;45475;-66
2022/07/24 08:05:02;;;;;;;;;13.33;11.00;;;;;50.74;20.30;101364.31;5003779;28;45746;-66
2022/07/24 08:07:27;;;;;;;;;15.67;15.00;;;;;50.68;19.56;101355.34;5016041;28;45461;-67
2022/07/24 08:09:53;;;;;;;;;9.67;9.67;;;;;50.69;19.47;101351.16;5013488;28;45452;-70
2022/07/24 08:12:18;;;;;;;;;15.00;12.67;;;;;50.54;20.11;101353.78;4995125;28;45703;-69
2022/07/24 08:14:44;;;;;;;;;11.33;11.00;;;;;50.65;19.85;101356.31;5001407;28;45516;-67
2022/07/24 08:17:09;;;;;;;;;10.33;10.33;;;;;50.63;19.92;101359.69;5008083;28;45757;-67
2022/07/24 08:19:35;;;;;;;;;11.00;10.67;;;;;50.80;20.29;101354.47;4987287;28;45796;-70
2022/07/24 08:22:00;;;;;;;;;13.00;13.00;;;;;50.88;19.75;101357.94;5005432;28;45773;-71
2022/07/24 08:24:26;;;;;;;;;8.00;8.00;;;;;50.96;19.59;101350.53;4978043;28;45919;-69
2022/07/24 08:26:54;;;;;;;;;12.00;11.33;;;;;51.12;19.67;101351.59;4999105;28;47471;-79
2022/07/24 08:29:20;;;;;;;;;13.00;10.33;;;;;51.07;19.48;101346.34;5011892;28;45558;-79
2022/07/24 08:31:45;;;;;;;;;11.00;11.00;;;;;51.07;19.60;101341.34;4994260;28;45319;-78
2022/07/24 08:34:11;;;;;;;;;10.33;10.33;;;;;51.53;18.62;101346.56;5005362;28;45801;-77
2022/07/24 08:36:36;;;;;;;;;12.67;11.00;;;;;51.89;17.87;101340.03;5010157;28;45375;-80
2022/07/24 08:39:02;;;;;;;;;11.00;11.00;;;;;51.72;17.60;101339.50;4987559;28;45134;-80
2022/07/24 08:41:35;;;;;;;;;12.67;12.00;;;;;51.96;17.91;101341.81;5012504;28;45592;-80
2022/07/24 08:44:03;;;;;;;;;13.33;11.00;;;;;52.21;18.25;101329.00;5017354;28;45761;-78
2022/07/24 08:46:28;;;;;;;;;10.67;10.67;;;;;52.45;17.63;101330.47;5011600;28;45563;-78
2022/07/24 08:48:55;;;;;;;;;11.00;11.00;;;;;52.51;17.26;101328.50;5003698;28;45810;-78
2022/07/24 08:51:21;;;;;;;;;10.67;10.67;;;;;52.36;17.26;101326.28;5008183;28;45420;-80
2022/07/24 08:53:49;;;;;;;;;10.67;10.67;;;;;52.21;17.18;101323.16;5006905;28;47715;-81
2022/07/24 08:56:16;;;;;;;;;11.67;11.00;;;;;52.14;17.07;101314.69;5014239;28;45224;-80
2022/07/24 08:58:41;;;;;;;;;10.33;10.33;;;;;52.75;17.07;101314.03;5008657;28;45477;-79
2022/07/24 09:01:08;;;;;;;;;9.00;9.00;;;;;52.73;16.47;101311.59;5017198;28;45722;-82
2022/07/24 09:03:45;;;;;;;;;11.00;10.33;;;;;52.76;16.47;101309.78;5024124;28;45519;-85
2022/07/24 09:06:12;;;;;;;;;8.67;8.67;;;;;52.85;16.79;101303.06;5016801;28;45550;-85
2022/07/24 09:08:39;;;;;;;;;8.67;8.00;;;;;52.87;16.35;101300.47;5033661;28;45454;-86
2022/07/24 09:11:05;;;;;;;;;11.00;11.00;;;;;52.91;16.65;101298.16;5029747;28;45409;-87
2022/07/24 09:16:26;;;;;;;;;9.00;9.00;;;;;52.81;16.98;101287.78;5023312;28;45711;-83
2022/07/24 09:19:02;;;;;;;;;8.33;8.00;;;;;52.85;16.51;101294.28;5026833;28;45327;-82
2022/07/24 09:21:33;;;;;;;;;9.00;9.00;;;;;52.85;16.29;101295.09;5012904;28;44856;-83
2022/07/24 09:24:02;;;;;;;;;8.67;7.67;;;;;52.73;16.13;101296.94;5024941;28;44982;-81
2022/07/24 09:26:47;;;;;;;;;9.67;9.67;;;;;52.75;16.41;101285.53;5023092;28;47371;-85
2022/07/24 09:29:13;;;;;;;;;8.67;8.67;;;;;52.95;16.36;101279.09;5016373;28;45288;-85
2022/07/24 09:31:56;;;;;;;;;11.67;10.67;;;;;52.92;15.87;101282.22;5009274;28;45191;-85
2022/07/24 09:34:23;;;;;;;;;12.00;11.00;;;;;53.04;15.81;101268.69;5005425;28;45900;-85
2022/07/24 09:37:06;;;;;;;;;9.00;7.67;;;;;52.37;16.12;101263.50;5023116;28;45236;-84
2022/07/24 09:39:34;;;;;;;;;9.00;9.00;;;;;52.20;16.10;101256.31;5033536;28;44878;-85
2022/07/24 09:42:01;;;;;;;;;8.00;8.00;;;;;52.00;16.24;101260.56;5017254;28;45277;-88
2022/07/24 09:44:29;;;;;;;;;6.00;6.00;;;;;52.40;15.64;101253.72;5030833;28;44877;-87
2022/07/24 09:46:55;;;;;;;;;5.33;5.33;;;;;52.97;15.79;101260.22;5030528;28;44995;-83
2022/07/24 09:49:21;;;;;;;;;8.00;7.67;;;;;53.31;14.90;101247.19;5038055;28;45166;-82
2022/07/24 09:52:05;;;;;;;;;7.00;6.00;;;;;53.25;15.08;101249.19;5020832;28;45407;-83
2022/07/24 09:54:33;;;;;;;;;7.33;6.67;;;;;53.18;15.56;101241.56;5017090;28;45425;-81
2022/07/24 09:57:17;;;;;;;;;6.00;6.00;;;;;53.18;15.33;101237.81;5017649;28;44990;-81
2022/07/24 09:59:47;;;;;;;;;6.33;6.33;;;;;53.30;14.81;101245.56;5018091;28;44813;-78
2022/07/24 10:02:14;;;;;;;;;5.67;5.67;;;;;53.22;15.08;101241.41;5022868;28;45430;-80
2022/07/24 10:04:43;;;;;;;;;7.00;6.00;;;;;53.62;14.70;101240.16;5004402;28;45893;-79
2022/07/24 10:07:11;;;;;;;;;5.67;5.67;;;;;53.51;15.27;101236.97;5012004;28;45264;-79
2022/07/24 10:09:41;;;;;;;;;7.67;7.67;;;;;53.22;15.19;101238.47;4990726;28;45276;-80
2022/07/24 10:12:12;;;;;;;;;8.00;6.33;;;;;53.43;14.91;101227.75;5021598;28;45821;-79
2022/07/24 10:14:38;;;;;;;;;7.00;7.00;;;;;53.35;14.42;101227.34;5017331;28;45288;-80
2022/07/24 10:17:07;;;;;;;;;5.00;5.00;;;;;53.47;14.48;101228.38;5025864;28;45241;-80
2022/07/24 10:20:02;;;;;;;;;7.00;7.00;;;;;52.99;14.61;101229.13;5016042;28;44784;-81
2022/07/24 10:22:43;;;;;;;;;7.67;6.67;;;;;53.05;15.05;101233.03;5017551;28;45442;-80
2022/07/24 10:25:13;;;;;;;;;8.67;8.33;;;;;52.99;14.48;101228.28;4995280;28;46216;-79
2022/07/24 10:27:41;;;;;;;;;7.00;7.00;;;;;52.57;14.78;101221.94;5007358;28;45701;-78
2022/07/24 10:30:10;;;;;;;;;8.00;7.67;;;;;52.54;14.72;101225.84;5020115;28;45433;-80
2022/07/24 10:32:37;;;;;;;;;10.00;7.00;;;;;52.52;14.90;101216.75;5019575;28;45783;-81
2022/07/24 10:35:22;;;;;;;;;8.00;7.00;;;;;52.13;15.45;101216.50;5002919;28;45400;-81
2022/07/24 10:38:00;;;;;;;;;2.00;2.00;;;;;51.68;15.15;101215.19;5005775;28;46263;-80
2022/07/24 10:40:38;;;;;;;;;9.00;7.33;;;;;51.20;15.33;101215.56;4997492;28;45317;-82
2022/07/24 10:43:08;;;;;;;;;5.33;5.33;;;;;51.04;15.43;101207.88;5008431;28;45900;-80
2022/07/24 10:45:34;;;;;;;;;8.33;6.00;;;;;51.19;15.99;101205.16;5021383;28;45691;-81
2022/07/24 10:48:35;;;;;;;;;8.33;8.33;;;;;51.28;15.79;101199.34;5020256;28;45506;-80
2022/07/24 10:51:08;;;;;;;;;114.67;109.67;;;;;51.66;15.69;101197.34;4997310;28;45469;-81
2022/07/24 10:53:36;;;;;;;;;167.25;162.00;;;;;51.76;15.24;101196.03;5020787;28;45270;-79
2022/07/24 10:56:20;;;;;;;;;158.25;151.25;;;;;51.95;14.93;101199.75;5023141;28;45560;-80
2022/07/24 10:59:01;;;;;;;;;123.67;120.33;;;;;51.48;14.82;101192.25;5005599;28;47875;-79
2022/07/24 11:01:44;;;;;;;;;103.00;99.33;;;;;50.95;15.32;101187.41;5007435;28;45607;-76
2022/07/24 11:04:18;;;;;;;;;97.33;94.00;;;;;50.08;16.31;101189.97;5007663;28;45430;-80
2022/07/24 11:06:46;;;;;;;;;90.25;88.75;;;;;49.74;16.81;101177.88;4997822;28;45845;-81
2022/07/24 11:09:13;;;;;;;;;114.33;110.33;;;;;49.62;17.68;101182.47;5017661;28;45697;-77